createdAt,value
2019-01-12T00:00:31.367Z,-21196.49
2019-01-12T00:02:59.759Z,-21196.20
2019-01-12T00:05:28.042Z,-21172.35
2019-01-12T00:07:56.425Z,-21152.60
2019-01-12T00:10:24.773Z,-21146.77
2019-01-12T00:12:53.051Z,-21144.21
2019-01-12T00:15:21.417Z,-21146.77
2019-01-12T00:17:49.675Z,-21102.93
2019-01-12T00:20:18.009Z,-21101.52
2019-01-12T00:22:47.182Z,-21100.09
2019-01-12T00:25:15.472Z,-21102.51
2019-01-12T00:27:44.763Z,-21103.79
2019-01-12T00:30:14.099Z,-21106.64
2019-01-12T00:32:42.517Z,-21122.59
2019-01-12T00:35:10.956Z,-21102.51
2019-01-12T00:37:39.248Z,-21113.48
2019-01-12T00:40:08.890Z,-21166.95
2019-01-12T00:42:37.371Z,-21089.40
2019-01-12T00:45:09.834Z,-21110.48
2019-01-12T00:47:38.126Z,-21090.68
2019-01-12T00:50:09.999Z,-21099.23
2019-01-12T00:52:39.316Z,-21100.09
2019-01-12T00:55:07.720Z,-21109.77
2019-01-12T00:57:36.083Z,-21112.19
2019-01-12T01:00:10.677Z,-21089.12
2019-01-12T01:02:39.004Z,-21087.98
2019-01-12T01:05:08.254Z,-21090.11
2019-01-12T01:07:36.863Z,-21086.84
2019-01-12T01:10:19.578Z,-21085.27
2019-01-12T01:12:47.937Z,-21117.32
2019-01-12T01:15:16.371Z,-21100.66
2019-01-12T01:17:46.682Z,-21107.78
2019-01-12T01:20:16.555Z,-21093.25
2019-01-12T01:22:45.163Z,-21100.23
2019-01-12T01:25:13.712Z,-21095.24
2019-01-12T01:27:42.132Z,-21129.41
2019-01-12T01:30:18.384Z,-21116.89
2019-01-12T01:32:47.052Z,-21119.45
2019-01-12T01:35:15.440Z,-21136.96
2019-01-12T01:37:43.748Z,-21143.64
2019-01-12T01:40:13.988Z,-21121.02
2019-01-12T01:42:43.490Z,-21095.96
2019-01-12T01:45:14.373Z,-21111.34
2019-01-12T01:47:42.768Z,-21122.59
2019-01-12T01:50:13.269Z,-21107.78
2019-01-12T01:52:41.579Z,-21152.74
2019-01-12T01:55:09.947Z,-21178.88
2019-01-12T01:57:38.311Z,-21171.78
2019-01-12T02:00:15.164Z,-21141.93
2019-01-12T02:02:43.622Z,-21138.24
2019-01-12T02:05:11.990Z,-21122.30
2019-01-12T02:07:40.433Z,-21125.29
2019-01-12T02:10:14.434Z,-21139.94
2019-01-12T02:12:42.943Z,-21145.21
2019-01-12T02:15:13.473Z,-21124.29
2019-01-12T02:17:41.784Z,-21129.41
2019-01-12T02:20:10.406Z,-21150.18
2019-01-12T02:22:38.746Z,-21154.16
2019-01-12T02:25:09.650Z,-21144.35
2019-01-12T02:27:37.962Z,-21144.21
2019-01-12T02:30:15.387Z,-21143.93
2019-01-12T02:32:43.729Z,-21150.75
2019-01-12T02:35:12.021Z,-21137.24
2019-01-12T02:37:40.334Z,-21128.56
2019-01-12T02:40:09.386Z,-21137.24
2019-01-12T02:42:37.859Z,-21129.70
2019-01-12T02:45:12.467Z,-21116.04
2019-01-12T02:47:42.433Z,-21110.63
2019-01-12T02:50:12.468Z,-21145.35
2019-01-12T02:52:40.969Z,-21129.41
2019-01-12T02:55:10.566Z,-21118.88
2019-01-12T02:57:38.930Z,-21121.87
2019-01-12T03:00:10.653Z,-21112.05
2019-01-12T03:02:39.065Z,-21127.13
2019-01-12T03:05:07.706Z,-21108.78
2019-01-12T03:07:36.107Z,-21135.67
2019-01-12T03:10:08.744Z,-21124.57
2019-01-12T03:12:37.001Z,-21117.60
2019-01-12T03:15:08.691Z,-21114.90
2019-01-12T03:17:36.982Z,-21131.12
2019-01-12T03:20:12.031Z,-21116.18
2019-01-12T03:22:40.311Z,-21104.36
2019-01-12T03:25:17.232Z,-21117.88
2019-01-12T03:27:39.741Z,-21121.16
2019-01-12T03:30:13.888Z,-21106.64
2019-01-12T03:32:42.296Z,-21097.95
2019-01-12T03:35:12.376Z,-21168.65
2019-01-12T03:37:40.746Z,-21206.27
2019-01-12T03:40:12.509Z,-21157.01
2019-01-12T03:42:41.880Z,-21133.97
2019-01-12T03:45:12.765Z,-21137.38
2019-01-12T03:47:41.090Z,-21155.86
2019-01-12T03:50:11.397Z,-21144.07
2019-01-12T03:52:39.714Z,-21141.79
2019-01-12T03:55:08.282Z,-21136.38
2019-01-12T03:57:36.722Z,-21122.01
2019-01-12T04:00:14.502Z,-21118.46
2019-01-12T04:02:42.991Z,-21146.20
2019-01-12T04:05:11.407Z,-21142.93
2019-01-12T04:07:39.717Z,-21159.42
2019-01-12T04:10:10.826Z,-21162.12
2019-01-12T04:12:39.187Z,-21216.05
2019-01-12T04:15:12.457Z,-21209.54
2019-01-12T04:17:40.787Z,-21217.62
2019-01-12T04:20:11.848Z,-21195.07
2019-01-12T04:22:40.288Z,-21183.43
2019-01-12T04:25:08.732Z,-21175.05
2019-01-12T04:27:37.097Z,-21170.93
2019-01-12T04:30:08.729Z,-21186.55
2019-01-12T04:32:38.955Z,-21185.98
2019-01-12T04:35:07.683Z,-21150.75
2019-01-12T04:37:36.023Z,-21124.00
2019-01-12T04:40:08.691Z,-21123.01
2019-01-12T04:42:36.971Z,-21130.55
2019-01-12T04:45:08.527Z,-21111.91
2019-01-12T04:47:36.983Z,-21124.57
2019-01-12T04:50:08.536Z,-21128.70
2019-01-12T04:52:36.857Z,-21112.48
2019-01-12T04:55:06.892Z,-21126.00
2019-01-12T04:57:35.255Z,-21115.47
2019-01-12T05:00:05.157Z,-21111.05
2019-01-12T05:02:33.484Z,-21147.34
2019-01-12T05:05:01.909Z,-21123.16
2019-01-12T05:07:30.189Z,-21113.62
2019-01-12T05:09:58.529Z,-21130.98
2019-01-12T05:12:27.862Z,-21105.50
2019-01-12T05:14:56.197Z,-21140.23
2019-01-12T05:17:24.591Z,-21141.93
2019-01-12T05:19:52.931Z,-21124.57
2019-01-12T05:22:21.229Z,-21150.89
2019-01-12T05:24:49.502Z,-21139.52
2019-01-12T05:27:17.824Z,-21128.56
2019-01-12T05:29:46.105Z,-21119.45
2019-01-12T05:32:14.365Z,-21118.74
2019-01-12T05:34:42.633Z,-21121.59
2019-01-12T05:37:11.005Z,-21112.05
2019-01-12T05:39:39.330Z,-21131.55
2019-01-12T05:42:07.618Z,-21125.43
2019-01-12T05:44:35.871Z,-21140.52
2019-01-12T05:47:04.334Z,-21152.60
2019-01-12T05:49:32.650Z,-21113.62
2019-01-12T05:52:00.918Z,-21115.90
2019-01-12T05:54:30.247Z,-21121.02
2019-01-12T05:56:58.500Z,-21116.32
2019-01-12T05:59:27.814Z,-21127.13
2019-01-12T06:01:56.253Z,-21140.09
2019-01-12T06:04:24.663Z,-21136.24
2019-01-12T06:06:53.037Z,-21114.04
2019-01-12T06:09:21.369Z,-21118.17
2019-01-12T06:11:49.649Z,-21110.91
2019-01-12T06:14:17.920Z,-21125.86
2019-01-12T06:16:46.202Z,-21109.91
2019-01-12T06:19:14.471Z,-21118.74
2019-01-12T06:21:42.753Z,-21111.34
2019-01-12T06:24:11.073Z,-21118.17
2019-01-12T06:26:39.403Z,-21111.48
2019-01-12T06:29:07.747Z,-21125.43
2019-01-12T06:31:37.116Z,-21116.18
2019-01-12T06:34:05.716Z,-21138.80
2019-01-12T06:36:34.008Z,-21153.88
2019-01-12T06:39:02.281Z,-21143.08
2019-01-12T06:41:30.593Z,-21150.61
2019-01-12T06:43:58.872Z,-21177.18
2019-01-12T06:46:28.194Z,-21153.59
2019-01-12T06:48:56.567Z,-21118.46
2019-01-12T06:51:24.987Z,-21106.78
2019-01-12T06:53:53.255Z,-21129.98
2019-01-12T06:56:21.540Z,-21148.48
2019-01-12T06:58:49.800Z,-21137.67
2019-01-12T07:01:18.166Z,-21138.10
2019-01-12T07:03:46.493Z,-21141.65
2019-01-12T07:06:14.838Z,-21135.39
2019-01-12T07:08:43.238Z,-21142.22
2019-01-12T07:11:12.741Z,-21121.16
2019-01-12T07:13:41.034Z,-21124.00
2019-01-12T07:16:09.353Z,-21141.93
2019-01-12T07:18:37.789Z,-21168.65
2019-01-12T07:21:06.249Z,-21103.50
2019-01-12T07:23:34.743Z,-21107.63
2019-01-12T07:26:03.035Z,-21103.65
2019-01-12T07:28:31.394Z,-21107.63
2019-01-12T07:30:59.909Z,-21112.62
2019-01-12T07:33:29.311Z,-21124.72
2019-01-12T07:35:57.604Z,-21130.55
2019-01-12T07:38:25.878Z,-21142.50
2019-01-12T07:40:54.139Z,-21145.21
2019-01-12T07:43:22.414Z,-21116.89
2019-01-12T07:45:50.697Z,-21112.48
2019-01-12T07:48:18.962Z,-21108.06
2019-01-12T07:50:47.246Z,-21123.44
2019-01-12T07:53:15.519Z,-21117.88
2019-01-12T07:55:44.008Z,-21132.68
2019-01-12T07:58:12.286Z,-21129.84
2019-01-12T08:00:40.549Z,-21140.52
2019-01-12T08:03:08.915Z,-21134.82
2019-01-12T08:05:37.312Z,-21141.65
2019-01-12T08:08:05.602Z,-21135.39
2019-01-12T08:10:34.045Z,-21125.71
2019-01-12T08:13:02.355Z,-21133.68
2019-01-12T08:15:30.646Z,-21126.57
2019-01-12T08:17:58.937Z,-21131.12
2019-01-12T08:20:28.990Z,-21130.41
2019-01-12T08:22:57.274Z,-21127.13
2019-01-12T08:25:25.634Z,-21123.44
2019-01-12T08:27:54.976Z,-21128.85
2019-01-12T08:30:23.292Z,-21133.25
2019-01-12T08:32:51.558Z,-21117.74
2019-01-12T08:35:19.874Z,-21123.72
2019-01-12T08:37:48.262Z,-21118.74
2019-01-12T08:40:16.563Z,-21144.64
2019-01-12T08:42:44.864Z,-21125.15
2019-01-12T08:45:13.537Z,-21138.24
2019-01-12T08:47:41.882Z,-21124.29
2019-01-12T08:50:13.482Z,-21145.92
2019-01-12T08:52:41.894Z,-21129.41
2019-01-12T08:55:11.128Z,-21137.81
2019-01-12T08:57:39.500Z,-21128.70
2019-01-12T09:00:10.990Z,-21150.89
2019-01-12T09:02:39.352Z,-21126.99
2019-01-12T09:05:07.918Z,-21129.13
2019-01-12T09:07:36.218Z,-21166.10
2019-01-12T09:10:07.317Z,-21124.86
2019-01-12T09:12:35.663Z,-21137.96
2019-01-12T09:15:05.838Z,-21115.75
2019-01-12T09:17:34.199Z,-21137.96
2019-01-12T09:20:06.805Z,-21137.67
2019-01-12T09:22:35.091Z,-21138.95
2019-01-12T09:25:04.182Z,-21139.94
2019-01-12T09:27:32.464Z,-21135.39
2019-01-12T09:30:01.804Z,-21127.99
2019-01-12T09:32:30.189Z,-21128.70
2019-01-12T09:34:59.580Z,-21112.19
2019-01-12T09:37:27.995Z,-21128.28
2019-01-12T09:39:56.489Z,-21137.53
2019-01-12T09:42:24.766Z,-21132.97
2019-01-12T09:44:53.047Z,-21156.58
2019-01-12T09:47:21.312Z,-21120.87
2019-01-12T09:49:49.598Z,-21131.41
2019-01-12T09:52:17.887Z,-21181.73
2019-01-12T09:54:46.154Z,-21174.76
2019-01-12T09:57:14.430Z,-21160.27
2019-01-12T09:59:42.725Z,-21173.34
2019-01-12T10:02:12.699Z,-21155.86
2019-01-12T10:04:41.037Z,-21166.52
2019-01-12T10:07:09.310Z,-21148.48
2019-01-12T10:09:37.690Z,-21159.99
2019-01-12T10:12:05.996Z,-21151.18
2019-01-12T10:14:35.407Z,-21167.38
2019-01-12T10:17:03.675Z,-21152.46
2019-01-12T10:19:31.976Z,-21156.58
2019-01-12T10:22:01.219Z,-21177.04
2019-01-12T10:24:30.546Z,-21156.44
2019-01-12T10:26:58.889Z,-21162.97
2019-01-12T10:29:27.130Z,-21152.17
2019-01-12T10:31:55.441Z,-21154.30
2019-01-12T10:34:25.272Z,-21165.25
2019-01-12T10:36:53.628Z,-21166.81
2019-01-12T10:39:21.932Z,-21188.54
2019-01-12T10:41:56.087Z,-21186.55
2019-01-12T10:44:24.348Z,-21152.89
2019-01-12T10:46:52.621Z,-21157.15
2019-01-12T10:49:20.918Z,-21172.63
2019-01-12T10:51:49.197Z,-21159.84
2019-01-12T10:54:17.539Z,-21162.40
2019-01-12T10:56:45.824Z,-21180.59
2019-01-12T10:59:15.050Z,-21181.29
2019-01-12T11:01:43.388Z,-21165.82
2019-01-12T11:04:11.815Z,-21178.31
2019-01-12T11:06:40.111Z,-21175.61
2019-01-12T11:09:08.770Z,-21171.78
2019-01-12T11:11:37.067Z,-21190.10
2019-01-12T11:14:05.466Z,-21196.20
2019-01-12T11:16:33.748Z,-21190.52
2019-01-12T11:19:02.110Z,-21229.81
2019-01-12T11:21:30.325Z,-21234.77
2019-01-12T11:23:58.637Z,-21220.17
2019-01-12T11:26:27.006Z,-21236.04
2019-01-12T11:28:56.661Z,-21141.37
2019-01-12T11:31:24.939Z,-21147.34
2019-01-12T11:33:53.278Z,-21123.01
2019-01-12T11:36:21.604Z,-21121.02
2019-01-12T11:38:49.915Z,-21140.09
2019-01-12T11:41:18.264Z,-21126.57
2019-01-12T11:43:46.601Z,-21131.55
2019-01-12T11:46:15.758Z,-21114.61
2019-01-12T11:48:44.045Z,-21113.19
2019-01-12T11:51:12.935Z,-21117.74
2019-01-12T11:53:41.313Z,-21107.63
2019-01-12T11:56:09.759Z,-21112.48
2019-01-12T11:58:38.018Z,-21110.05
2019-01-12T12:01:06.355Z,-21106.64
2019-01-12T12:03:34.763Z,-21103.36
2019-01-12T12:06:03.151Z,-21101.37
2019-01-12T12:08:32.510Z,-21101.94
2019-01-12T12:11:00.815Z,-21099.80
2019-01-12T12:13:29.117Z,-21112.05
2019-01-12T12:15:57.470Z,-21104.08
2019-01-12T12:18:25.875Z,-21112.34
2019-01-12T12:20:54.267Z,-21103.79
2019-01-12T12:23:22.594Z,-21106.36
2019-01-12T12:25:50.891Z,-21120.59
2019-01-12T12:28:19.139Z,-21108.63
2019-01-12T12:30:47.421Z,-21103.08
2019-01-12T12:33:15.698Z,-21108.49
2019-01-12T12:35:43.986Z,-21116.89
2019-01-12T12:38:12.259Z,-21100.23
2019-01-12T12:40:40.533Z,-21115.32
2019-01-12T12:43:08.942Z,-21108.21
2019-01-12T12:45:37.289Z,-21096.96
2019-01-12T12:48:05.867Z,-21094.53
2019-01-12T12:50:34.331Z,-21091.68
2019-01-12T12:53:02.622Z,-21107.78
2019-01-12T12:55:31.006Z,-21108.35
2019-01-12T12:58:00.508Z,-21095.53
2019-01-12T13:00:30.135Z,-21113.34
2019-01-12T13:02:58.491Z,-21096.10
2019-01-12T13:05:26.800Z,-21097.24
2019-01-12T13:07:55.218Z,-21092.96
2019-01-12T13:10:44.452Z,-21092.82
2019-01-12T13:13:12.762Z,-21091.26
2019-01-12T13:15:42.510Z,-21102.37
2019-01-12T13:18:11.111Z,-21094.11
2019-01-12T13:20:39.390Z,-21109.35
2019-01-12T13:23:07.842Z,-21103.22
2019-01-12T13:25:36.173Z,-21086.98
2019-01-12T13:28:04.710Z,-21096.10
2019-01-12T13:30:33.056Z,-21095.10
2019-01-12T13:33:01.551Z,-21106.36
2019-01-12T13:35:29.916Z,-21100.52
2019-01-12T13:37:59.537Z,-21107.49
2019-01-12T13:40:28.221Z,-21110.48
2019-01-12T13:42:56.591Z,-21101.66
2019-01-12T13:45:25.037Z,-21105.64
2019-01-12T13:47:53.490Z,-21107.92
2019-01-12T13:50:23.780Z,-21105.93
2019-01-12T13:52:52.273Z,-21104.08
2019-01-12T13:55:28.465Z,-21097.10
2019-01-12T13:57:56.750Z,-21110.20
2019-01-12T14:00:28.005Z,-21091.11
2019-01-12T14:02:56.460Z,-21098.66
2019-01-12T14:05:26.468Z,-21110.20
2019-01-12T14:07:56.475Z,-21120.16
2019-01-12T14:10:25.021Z,-21103.79
2019-01-12T14:12:53.433Z,-21102.37
2019-01-12T14:15:22.042Z,-21155.45
2019-01-12T14:17:51.361Z,-21148.05
2019-01-12T14:20:28.022Z,-21136.10
2019-01-12T14:22:56.388Z,-21161.70
2019-01-12T14:25:24.741Z,-21130.27
2019-01-12T14:27:54.850Z,-21130.84
2019-01-12T14:30:23.193Z,-21112.34
2019-01-12T14:32:51.552Z,-21107.06
2019-01-12T14:35:19.962Z,-21255.16
2019-01-12T14:37:48.530Z,-21230.94
2019-01-12T14:40:19.433Z,-21234.63
2019-01-12T14:42:48.246Z,-21212.65
2019-01-12T14:45:37.384Z,-21224.14
2019-01-12T14:48:06.075Z,-21216.05
2019-01-12T14:50:34.573Z,-21192.80
2019-01-12T14:53:03.057Z,-21214.64
2019-01-12T14:55:31.421Z,-21204.43
2019-01-12T14:58:02.675Z,-21196.35
2019-01-12T15:00:29.850Z,-21193.22
2019-01-12T15:02:58.215Z,-21232.22
2019-01-12T15:05:28.301Z,-21208.40
2019-01-12T15:07:56.639Z,-21131.69
2019-01-12T15:10:27.248Z,-21149.61
2019-01-12T15:12:55.609Z,-21161.84
2019-01-12T15:15:24.108Z,-21184.99
2019-01-12T15:17:52.384Z,-21277.65
2019-01-12T15:20:22.801Z,-21212.09
2019-01-12T15:22:51.107Z,-21204.43
2019-01-12T15:25:20.055Z,-21240.29
2019-01-12T15:27:48.993Z,-21204.86
2019-01-12T15:30:22.661Z,-21200.60
2019-01-12T15:32:51.054Z,-21237.46
2019-01-12T15:35:20.668Z,-21181.44
2019-01-12T15:37:49.928Z,-21280.63
2019-01-12T15:40:20.406Z,-21338.80
2019-01-12T15:42:48.740Z,-21308.18
2019-01-12T15:45:19.755Z,-21270.86
2019-01-12T15:47:48.256Z,-21267.05
2019-01-12T15:50:19.200Z,-21262.66
2019-01-12T15:52:47.637Z,-21178.60
2019-01-12T15:55:16.127Z,-21209.68
2019-01-12T15:57:46.361Z,-21214.78
2019-01-12T16:00:20.110Z,-21206.41
2019-01-12T16:02:48.719Z,-21277.09
2019-01-12T16:05:17.042Z,-21235.90
2019-01-12T16:07:45.447Z,-21209.96
2019-01-12T16:10:15.072Z,-21263.65
2019-01-12T16:12:43.477Z,-21280.90
2019-01-12T16:15:14.877Z,-21244.82
2019-01-12T16:17:43.215Z,-21214.78
2019-01-12T16:20:20.502Z,-21202.16
2019-01-12T16:22:48.771Z,-21226.55
2019-01-12T16:25:17.142Z,-21243.55
2019-01-12T16:27:45.428Z,-21242.13
2019-01-12T16:30:17.667Z,-21239.02
2019-01-12T16:32:46.915Z,-21207.41
2019-01-12T16:35:15.187Z,-21254.45
2019-01-12T16:37:44.022Z,-21157.71
2019-01-12T16:40:17.838Z,-21149.61
2019-01-12T16:42:46.155Z,-21143.08
2019-01-12T16:45:16.389Z,-21131.84
2019-01-12T16:47:44.656Z,-21136.96
2019-01-12T16:50:14.050Z,-21130.41
2019-01-12T16:52:42.343Z,-21126.14
2019-01-12T16:55:13.597Z,-21152.60
2019-01-12T16:57:41.890Z,-21474.31
2019-01-12T17:00:13.486Z,-21097.52
2019-01-12T17:02:41.796Z,-21091.68
2019-01-12T17:05:11.179Z,-21093.82
2019-01-12T17:07:39.567Z,-21099.80
2019-01-12T17:10:10.986Z,-21091.68
2019-01-12T17:12:40.486Z,-21087.70
2019-01-12T17:15:11.307Z,-21080.70
2019-01-12T17:17:40.572Z,-21103.79
2019-01-12T17:20:12.366Z,-21104.65
2019-01-12T17:22:40.660Z,-21090.83
2019-01-12T17:25:09.207Z,-21123.44
2019-01-12T17:27:37.700Z,-21118.17
2019-01-12T17:30:09.111Z,-21127.85
2019-01-12T17:32:37.424Z,-21124.43
2019-01-12T17:35:08.457Z,-21167.66
2019-01-12T17:37:36.899Z,-21157.86
2019-01-12T17:40:08.512Z,-21126.43
2019-01-12T17:42:36.857Z,-21283.17
2019-01-12T17:45:11.020Z,-21262.38
2019-01-12T17:47:39.383Z,-21265.35
2019-01-12T17:50:11.089Z,-21285.85
2019-01-12T17:52:40.421Z,-21238.87
2019-01-12T17:55:12.383Z,-21223.29
2019-01-12T17:57:40.803Z,-21220.74
2019-01-12T18:00:16.719Z,-21221.45
2019-01-12T18:02:51.621Z,-21215.20
2019-01-12T18:05:19.986Z,-21172.06
2019-01-12T18:07:49.322Z,-21166.95
2019-01-12T18:10:17.681Z,-21176.89
2019-01-12T18:12:46.249Z,-21171.92
2019-01-12T18:15:16.362Z,-21166.24
2019-01-12T18:17:44.700Z,-21165.53
2019-01-12T18:20:16.224Z,-21173.91
2019-01-12T18:22:45.628Z,-21173.91
2019-01-12T18:25:14.066Z,-21148.48
2019-01-12T18:27:42.483Z,-21167.95
2019-01-12T18:30:14.446Z,-21167.52
2019-01-12T18:32:42.750Z,-21155.72
2019-01-12T18:35:11.056Z,-21137.24
2019-01-12T18:37:39.326Z,-21085.84
2019-01-12T18:40:13.527Z,-21090.54
2019-01-12T18:42:41.868Z,-21117.32
2019-01-12T18:45:12.701Z,-21126.99
2019-01-12T18:47:41.145Z,-21081.99
2019-01-12T18:50:12.509Z,-21074.43
2019-01-12T18:52:41.013Z,-21122.01
2019-01-12T18:55:11.487Z,-21104.79
2019-01-12T18:57:39.992Z,-21122.73
2019-01-12T19:00:18.565Z,-21157.29
2019-01-12T19:02:49.250Z,-21211.80
2019-01-12T19:05:17.760Z,-21151.46
2019-01-12T19:07:47.152Z,-21151.89
2019-01-12T19:10:15.956Z,-21155.58
2019-01-12T19:12:47.030Z,-21141.51
2019-01-12T19:15:18.054Z,-21140.37
2019-01-12T19:17:46.368Z,-21143.50
2019-01-12T19:20:14.719Z,-21163.68
2019-01-12T19:22:43.233Z,-21149.33
2019-01-12T19:25:13.171Z,-21150.61
2019-01-12T19:27:41.687Z,-21155.45
2019-01-12T19:30:23.621Z,-21140.80
2019-01-12T19:32:52.013Z,-21150.75
2019-01-12T19:35:20.440Z,-21134.11
2019-01-12T19:37:49.372Z,-21137.24
2019-01-12T19:40:20.732Z,-21131.69
2019-01-12T19:42:48.998Z,-21127.71
2019-01-12T19:45:19.443Z,-21148.90
2019-01-12T19:47:47.812Z,-21139.09
2019-01-12T19:50:22.416Z,-21136.81
2019-01-12T19:52:50.755Z,-21124.15
2019-01-12T19:55:19.196Z,-21133.11
2019-01-12T19:57:47.555Z,-21140.80
2019-01-12T20:00:18.753Z,-21140.80
2019-01-12T20:02:47.293Z,-21135.67
2019-01-12T20:05:15.647Z,-21131.41
2019-01-12T20:07:43.934Z,-21153.45
2019-01-12T20:10:17.963Z,-21142.50
2019-01-12T20:12:46.536Z,-21141.23
2019-01-12T20:15:20.286Z,-21232.64
2019-01-12T20:17:48.646Z,-21174.19
2019-01-12T20:20:17.421Z,-21172.20
2019-01-12T20:22:45.889Z,-21197.05
2019-01-12T20:25:17.784Z,-21185.13
2019-01-12T20:27:46.068Z,-21178.88
2019-01-12T20:30:32.691Z,-21264.07
2019-01-12T20:33:21.223Z,-21206.41
2019-01-12T20:36:00.809Z,-21188.40
2019-01-12T20:38:33.327Z,-21184.56
2019-01-12T20:41:10.887Z,-21191.66
2019-01-12T20:43:48.742Z,-21273.70
2019-01-12T20:46:22.915Z,-21189.96
2019-01-12T20:49:03.502Z,-21174.62
2019-01-12T20:52:02.292Z,-21173.91
2019-01-12T20:54:51.558Z,-21194.64
2019-01-12T20:57:51.929Z,-21197.05
2019-01-12T21:00:33.211Z,-21173.91
2019-01-12T21:03:08.227Z,-21184.00
2019-01-12T21:06:03.792Z,-21189.96
2019-01-12T21:08:47.113Z,-21209.96
2019-01-12T21:11:28.657Z,-21182.86
2019-01-12T21:14:08.876Z,-21157.57
2019-01-12T21:16:37.770Z,-21173.48
2019-01-12T21:19:07.105Z,-21177.88
2019-01-12T21:21:35.367Z,-21194.36
2019-01-12T21:24:03.858Z,-21176.04
2019-01-12T21:26:33.172Z,-21185.70
2019-01-12T21:29:01.635Z,-21160.70
2019-01-12T21:31:30.270Z,-21185.84
2019-01-12T21:33:58.637Z,-21164.39
2019-01-12T21:36:26.947Z,-21155.02
2019-01-12T21:38:55.234Z,-21157.29
2019-01-12T21:41:23.602Z,-21175.75
2019-01-12T21:43:51.941Z,-21166.24
2019-01-12T21:46:20.253Z,-21182.72
2019-01-12T21:48:48.616Z,-21165.82
2019-01-12T21:51:16.987Z,-21154.73
2019-01-12T21:53:45.284Z,-21151.60
2019-01-12T21:56:13.663Z,-21158.57
2019-01-12T21:58:41.949Z,-21157.01
2019-01-12T22:01:10.371Z,-21162.97
2019-01-12T22:03:38.718Z,-21151.46
2019-01-12T22:06:07.050Z,-21165.68
2019-01-12T22:08:35.324Z,-21163.82
2019-01-12T22:11:03.760Z,-21166.24
2019-01-12T22:13:32.224Z,-21168.09
2019-01-12T22:16:00.509Z,-21165.25
2019-01-12T22:18:28.803Z,-21167.23
2019-01-12T22:20:57.072Z,-21158.71
2019-01-12T22:23:25.346Z,-21157.57
2019-01-12T22:25:53.642Z,-21161.70
2019-01-12T22:28:21.920Z,-21157.29
2019-01-12T22:30:50.195Z,-21156.58
2019-01-12T22:33:18.504Z,-21167.23
2019-01-12T22:35:46.941Z,-21194.21
2019-01-12T22:38:15.230Z,-21167.09
2019-01-12T22:40:43.517Z,-21160.27
2019-01-12T22:43:11.802Z,-21201.59
2019-01-12T22:45:40.095Z,-21182.29
2019-01-12T22:48:08.494Z,-21249.21
2019-01-12T22:50:36.789Z,-21200.04
2019-01-12T22:53:05.134Z,-21157.01
2019-01-12T22:55:33.559Z,-21166.81
2019-01-12T22:58:01.863Z,-21148.34
2019-01-12T23:00:43.957Z,-21141.37
2019-01-12T23:03:12.697Z,-21159.57
2019-01-12T23:05:40.984Z,-21167.80
2019-01-12T23:08:09.294Z,-21170.93
2019-01-12T23:10:37.570Z,-21140.23
2019-01-12T23:13:05.931Z,-21152.46
2019-01-12T23:15:36.009Z,-21199.75
2019-01-12T23:18:04.895Z,-21139.38
2019-01-12T23:20:33.309Z,-21142.50
2019-01-12T23:23:01.621Z,-21172.20
2019-01-12T23:25:29.921Z,-21142.08
2019-01-12T23:27:58.229Z,-21168.94
2019-01-12T23:30:26.580Z,-21157.43
2019-01-12T23:32:55.036Z,-21190.25
2019-01-12T23:35:23.363Z,-21186.84
2019-01-12T23:37:51.646Z,-21165.96
2019-01-12T23:40:19.941Z,-21170.93
2019-01-12T23:42:48.315Z,-21158.57
2019-01-12T23:45:16.703Z,-21179.45
2019-01-12T23:47:44.970Z,-21164.96
2019-01-12T23:50:14.048Z,-21159.00
2019-01-12T23:52:42.386Z,-21137.96
2019-01-12T23:55:11.009Z,-21171.07
2019-01-12T23:57:39.360Z,-21131.69
